Milltown, Montana
Current Conditions -  °F | °C
As of 1:53 PM on Tuesday 27 Jan 2015 (Local Time) from KMSO Reporting Station
Clear Clear  
Wind Chill: 34°   Ceiling: Unl
Heat Index: 34°   Visibility: 10mi
Dew Point: 30°   Wind: 0mph
Humidity: 85%   Direction: NA
Pressure: 30.01"   Gusts: NA
Location:  46.87°N, 113.88°W
Report Text: KMSO 272053Z 00000KT 10SM CLR 01/M01 A3001 RMK AO2 SLP194 T00111011 58021
Loading
Personal Weather Stations






























Interactive Weather Map New forecast layout! Learn more

10-Day Weather Forecast

Advertisements
Track Severe Weather on mobile